Fairmont, WV (26554)

12:15 PM EDT on July 28, 2016 (GMT -0400)
N8TJD's WX Station. Stony Rd/Pinchgut Hollow. | | Change Station
Active Advisory: Areal Flood Warning

Elev 1283 ft 39.46 °N, 80.12 °W | Updated 8 seconds ago

Overcast
Overcast
79.2 °F
Feels Like 84 °F
N
0.0
Wind Variable Wind from NNE
Gusts 0.0 mph

Today
High -- | Low -- °F
--% Chance of Precip.
Yesterday
High -- | Low -- °F
Precip. -- in
Pressure 29.92 in
Visibility 10.0 miles
Clouds Mostly Cloudy 600 ft
Mostly Cloudy 1400 ft
Overcast 2000 ft
Heat Index 84 °F
Dew Point 78 °F
Humidity 97%
Rainfall 0.00 in
Snow Depth Not available.
6:17 AM 8:36 PM
Waning Crescent, 31% visible
METAR KCKB 281553Z 30007KT 10SM BKN006 BKN014 OVC020 25/23 A2997 RMK AO2 RAE53 SLP131 P0001 T02500228
Pressure 29.92 in
Visibility 10.0 miles
Clouds Mostly Cloudy 600 ft
Mostly Cloudy 1400 ft
Overcast 2000 ft
Heat Index 84 °F
Dew Point 78 °F
Humidity 97%
Rainfall 0.00 in
Snow Depth Not available.
6:17 AM 8:36 PM
Waning Crescent, 31% visible
METAR KCKB 281553Z 30007KT 10SM BKN006 BKN014 OVC020 25/23 A2997 RMK AO2 RAE53 SLP131 P0001 T02500228

10-Day Weather Forecast

Almanac

Astronomy

Jul. 28, 2016 Rise Set
Actual Time
Civil Twilight
Nautical Twilight
Astronomical Twilight
Moon
Length of Visible Light
Length of Day
Tomorrow will be .
, % of the Moon is Illuminated

Today's Extremes

State Highs State Lows

Community

WunderPhotos

Upload Photos

1,928,146 photos uploaded!

WunderBlog® & News

Nearby

Air Quality

  Air Quality AQ Index Pollutant
Not available.

Snow Depth

Station Depth Elevation

Earthquake Activity

City Distance Mag. Time & Date
Minimum magnitude displayed is 2.5.

Coastal Water Temperatures

Place Temperature

Stations

Nearby Weather Stations

Station Location Temp. Windchill Dew Point Humidity Wind Precip. Elev Updated Type
                   

Watches & Warnings

Areal Flood Warning
Issued: 10:40 AM EDT Jul. 28, 2016 – National Weather Service

The National Weather Service in Pittsburgh has issued a

* Flood Warning for...
southeastern Monongalia County in northern West Virginia...
southeastern Marion County in northern West Virginia...

* until 1245 PM EDT

* at 1038 am EDT... Doppler radar and automated rain gauges indicated
that heavy rain was falling over the area. The heavy rain will
cause flooding especially on roadways and poor drainage areas.
Rapid rises in streams and creeeks will occur and they will come
out of their banks in some locations.

* Some locations that will experience flooding include...
Fairmont... Pleasant Valley... Winfield... Barrackville... Monongah...
Browns Chapel and White Hall.

Please report flooding by calling 4 1 2... 2 6 2... 1 9 8 8... posting
to the NWS Pittsburgh facebook Page... or using twitter
@nwspittsburgh.
Precautionary/preparedness actions...

Turn around... don't drown when encountering flooded roads. Most flood
deaths occur in vehicles.


Lat... Lon 3958 7990 3950 7989 3943 8022 3951 8019